sensor_id;sensor_type;location;lat;lon;timestamp;P1;durP1;ratioP1;P2;durP2;ratioP2
41323;SDS011;27073;51.128;4.220;2022-10-31T00:00:04;17.80;;;10.88;;
41323;SDS011;27073;51.128;4.220;2022-10-31T00:02:36;15.48;;;11.15;;
41323;SDS011;27073;51.128;4.220;2022-10-31T00:05:02;11.93;;;10.20;;
41323;SDS011;27073;51.128;4.220;2022-10-31T00:07:28;16.92;;;10.25;;
41323;SDS011;27073;51.128;4.220;2022-10-31T00:09:53;15.18;;;10.13;;
41323;SDS011;27073;51.128;4.220;2022-10-31T00:12:19;15.55;;;10.32;;
41323;SDS011;27073;51.128;4.220;2022-10-31T00:14:45;21.98;;;11.50;;
41323;SDS011;27073;51.128;4.220;2022-10-31T00:17:10;11.48;;;9.57;;
41323;SDS011;27073;51.128;4.220;2022-10-31T00:19:36;14.50;;;10.57;;
41323;SDS011;27073;51.128;4.220;2022-10-31T00:22:02;14.57;;;10.88;;
41323;SDS011;27073;51.128;4.220;2022-10-31T00:24:27;16.58;;;11.50;;
41323;SDS011;27073;51.128;4.220;2022-10-31T00:26:53;17.88;;;11.27;;
41323;SDS011;27073;51.128;4.220;2022-10-31T00:29:20;13.02;;;10.63;;
41323;SDS011;27073;51.128;4.220;2022-10-31T00:31:46;13.15;;;10.40;;
41323;SDS011;27073;51.128;4.220;2022-10-31T00:34:11;16.05;;;10.73;;
41323;SDS011;27073;51.128;4.220;2022-10-31T00:36:37;13.68;;;9.85;;
41323;SDS011;27073;51.128;4.220;2022-10-31T00:39:03;14.45;;;10.57;;
41323;SDS011;27073;51.128;4.220;2022-10-31T00:41:28;13.77;;;10.60;;
41323;SDS011;27073;51.128;4.220;2022-10-31T00:43:55;13.18;;;10.27;;
41323;SDS011;27073;51.128;4.220;2022-10-31T00:46:20;16.27;;;10.80;;
41323;SDS011;27073;51.128;4.220;2022-10-31T00:48:49;13.70;;;10.90;;
41323;SDS011;27073;51.128;4.220;2022-10-31T00:51:15;12.93;;;9.45;;
41323;SDS011;27073;51.128;4.220;2022-10-31T00:53:40;13.23;;;9.77;;
41323;SDS011;27073;51.128;4.220;2022-10-31T00:56:06;13.88;;;9.88;;
41323;SDS011;27073;51.128;4.220;2022-10-31T00:58:32;13.75;;;10.75;;
41323;SDS011;27073;51.128;4.220;2022-10-31T01:00:58;15.10;;;10.15;;
41323;SDS011;27073;51.128;4.220;2022-10-31T01:03:24;15.63;;;10.15;;
41323;SDS011;27073;51.128;4.220;2022-10-31T01:06:00;14.40;;;10.43;;
41323;SDS011;27073;51.128;4.220;2022-10-31T01:08:36;13.95;;;9.90;;
41323;SDS011;27073;51.128;4.220;2022-10-31T01:11:17;15.43;;;10.02;;
41323;SDS011;27073;51.128;4.220;2022-10-31T01:13:49;13.02;;;10.20;;
41323;SDS011;27073;51.128;4.220;2022-10-31T01:16:16;14.77;;;9.73;;
41323;SDS011;27073;51.128;4.220;2022-10-31T01:18:44;16.13;;;10.23;;
41323;SDS011;27073;51.128;4.220;2022-10-31T01:21:11;15.07;;;9.95;;
41323;SDS011;27073;51.128;4.220;2022-10-31T01:23:41;13.18;;;9.70;;
41323;SDS011;27073;51.128;4.220;2022-10-31T01:28:45;11.60;;;9.30;;
41323;SDS011;27073;51.128;4.220;2022-10-31T01:31:16;14.45;;;10.02;;
41323;SDS011;27073;51.128;4.220;2022-10-31T01:33:43;17.73;;;10.00;;
41323;SDS011;27073;51.128;4.220;2022-10-31T01:38:41;12.02;;;9.38;;
41323;SDS011;27073;51.128;4.220;2022-10-31T01:41:07;12.48;;;9.65;;
41323;SDS011;27073;51.128;4.220;2022-10-31T01:46:11;14.77;;;10.95;;
41323;SDS011;27073;51.128;4.220;2022-10-31T01:48:37;14.82;;;10.15;;
41323;SDS011;27073;51.128;4.220;2022-10-31T01:51:05;12.43;;;9.10;;
41323;SDS011;27073;51.128;4.220;2022-10-31T01:53:32;13.00;;;10.10;;
41323;SDS011;27073;51.128;4.220;2022-10-31T01:56:00;15.02;;;9.77;;
41323;SDS011;27073;51.128;4.220;2022-10-31T01:58:27;19.08;;;11.00;;
41323;SDS011;27073;51.128;4.220;2022-10-31T02:00:57;13.85;;;10.00;;
41323;SDS011;27073;51.128;4.220;2022-10-31T02:03:25;15.57;;;9.77;;
41323;SDS011;27073;51.128;4.220;2022-10-31T02:05:52;16.77;;;10.30;;
41323;SDS011;27073;51.128;4.220;2022-10-31T02:08:28;15.85;;;9.95;;
41323;SDS011;27073;51.128;4.220;2022-10-31T02:10:58;11.70;;;9.30;;
41323;SDS011;27073;51.128;4.220;2022-10-31T02:13:26;12.85;;;9.15;;
41323;SDS011;27073;51.128;4.220;2022-10-31T02:15:55;12.68;;;10.18;;
41323;SDS011;27073;51.128;4.220;2022-10-31T02:18:23;14.95;;;10.18;;
41323;SDS011;27073;51.128;4.220;2022-10-31T02:37:13;12.55;;;10.00;;
41323;SDS011;27073;51.128;4.220;2022-10-31T02:39:53;13.95;;;9.82;;
41323;SDS011;27073;51.128;4.220;2022-10-31T02:42:59;11.60;;;9.40;;
41323;SDS011;27073;51.128;4.220;2022-10-31T02:46:17;10.30;;;9.00;;
41323;SDS011;27073;51.128;4.220;2022-10-31T02:48:44;14.20;;;10.05;;
41323;SDS011;27073;51.128;4.220;2022-10-31T02:51:11;13.38;;;9.65;;
41323;SDS011;27073;51.128;4.220;2022-10-31T02:53:37;15.23;;;9.95;;
41323;SDS011;27073;51.128;4.220;2022-10-31T02:56:13;15.80;;;10.32;;
41323;SDS011;27073;51.128;4.220;2022-10-31T02:58:45;14.20;;;9.80;;
41323;SDS011;27073;51.128;4.220;2022-10-31T03:13:01;17.23;;;10.35;;
41323;SDS011;27073;51.128;4.220;2022-10-31T03:15:43;14.98;;;9.55;;
41323;SDS011;27073;51.128;4.220;2022-10-31T03:20:43;16.08;;;9.57;;
41323;SDS011;27073;51.128;4.220;2022-10-31T03:23:16;12.35;;;8.60;;
41323;SDS011;27073;51.128;4.220;2022-10-31T03:25:48;13.27;;;9.55;;
41323;SDS011;27073;51.128;4.220;2022-10-31T03:28:16;13.85;;;9.25;;
41323;SDS011;27073;51.128;4.220;2022-10-31T03:30:49;13.20;;;9.65;;
41323;SDS011;27073;51.128;4.220;2022-10-31T03:33:17;12.77;;;9.70;;
41323;SDS011;27073;51.128;4.220;2022-10-31T03:35:50;12.32;;;9.15;;
41323;SDS011;27073;51.128;4.220;2022-10-31T03:38:18;15.43;;;9.35;;
41323;SDS011;27073;51.128;4.220;2022-10-31T03:40:45;14.02;;;9.45;;
41323;SDS011;27073;51.128;4.220;2022-10-31T03:43:15;13.80;;;9.85;;
41323;SDS011;27073;51.128;4.220;2022-10-31T03:45:47;11.20;;;9.45;;
41323;SDS011;27073;51.128;4.220;2022-10-31T03:48:13;13.63;;;8.90;;
41323;SDS011;27073;51.128;4.220;2022-10-31T03:50:57;11.02;;;9.13;;
41323;SDS011;27073;51.128;4.220;2022-10-31T03:53:46;10.25;;;9.15;;
41323;SDS011;27073;51.128;4.220;2022-10-31T03:56:28;13.38;;;9.57;;
41323;SDS011;27073;51.128;4.220;2022-10-31T03:59:01;15.50;;;9.70;;
41323;SDS011;27073;51.128;4.220;2022-10-31T04:01:31;11.88;;;9.38;;
41323;SDS011;27073;51.128;4.220;2022-10-31T04:04:00;15.18;;;10.15;;
41323;SDS011;27073;51.128;4.220;2022-10-31T04:06:27;12.98;;;9.07;;
41323;SDS011;27073;51.128;4.220;2022-10-31T04:08:56;13.10;;;9.75;;
41323;SDS011;27073;51.128;4.220;2022-10-31T04:11:25;12.75;;;9.38;;
41323;SDS011;27073;51.128;4.220;2022-10-31T04:14:15;13.10;;;9.90;;
41323;SDS011;27073;51.128;4.220;2022-10-31T04:16:41;13.73;;;9.68;;
41323;SDS011;27073;51.128;4.220;2022-10-31T04:19:09;13.07;;;9.40;;
41323;SDS011;27073;51.128;4.220;2022-10-31T04:21:36;14.63;;;9.57;;
41323;SDS011;27073;51.128;4.220;2022-10-31T04:24:02;14.82;;;9.75;;
41323;SDS011;27073;51.128;4.220;2022-10-31T04:26:29;11.65;;;9.32;;
41323;SDS011;27073;51.128;4.220;2022-10-31T04:28:55;16.35;;;10.57;;
41323;SDS011;27073;51.128;4.220;2022-10-31T04:31:20;13.18;;;10.50;;
41323;SDS011;27073;51.128;4.220;2022-10-31T04:33:48;13.52;;;10.20;;
41323;SDS011;27073;51.128;4.220;2022-10-31T04:36:14;13.57;;;9.50;;
41323;SDS011;27073;51.128;4.220;2022-10-31T04:38:41;17.30;;;10.70;;
41323;SDS011;27073;51.128;4.220;2022-10-31T04:41:17;15.40;;;10.13;;
41323;SDS011;27073;51.128;4.220;2022-10-31T04:43:51;15.68;;;11.32;;
41323;SDS011;27073;51.128;4.220;2022-10-31T04:46:17;13.13;;;9.57;;
41323;SDS011;27073;51.128;4.220;2022-10-31T04:48:43;15.50;;;10.35;;
41323;SDS011;27073;51.128;4.220;2022-10-31T04:51:10;15.10;;;10.20;;
41323;SDS011;27073;51.128;4.220;2022-10-31T04:53:35;15.77;;;10.02;;
41323;SDS011;27073;51.128;4.220;2022-10-31T04:56:30;12.10;;;9.07;;
41323;SDS011;27073;51.128;4.220;2022-10-31T04:59:04;14.50;;;10.15;;
41323;SDS011;27073;51.128;4.220;2022-10-31T05:01:42;14.65;;;10.05;;
41323;SDS011;27073;51.128;4.220;2022-10-31T05:04:09;18.75;;;11.02;;
41323;SDS011;27073;51.128;4.220;2022-10-31T05:06:35;13.13;;;9.20;;
41323;SDS011;27073;51.128;4.220;2022-10-31T05:09:00;13.00;;;9.48;;
41323;SDS011;27073;51.128;4.220;2022-10-31T05:11:27;13.80;;;9.73;;
41323;SDS011;27073;51.128;4.220;2022-10-31T05:13:57;13.07;;;9.95;;
41323;SDS011;27073;51.128;4.220;2022-10-31T05:16:45;16.42;;;10.27;;
41323;SDS011;27073;51.128;4.220;2022-10-31T05:19:29;14.75;;;10.43;;
41323;SDS011;27073;51.128;4.220;2022-10-31T05:22:18;13.18;;;9.60;;
41323;SDS011;27073;51.128;4.220;2022-10-31T05:24:44;13.18;;;9.85;;
41323;SDS011;27073;51.128;4.220;2022-10-31T05:27:09;17.55;;;10.18;;
41323;SDS011;27073;51.128;4.220;2022-10-31T05:29:35;14.10;;;10.07;;
41323;SDS011;27073;51.128;4.220;2022-10-31T05:32:02;12.07;;;9.95;;
41323;SDS011;27073;51.128;4.220;2022-10-31T05:34:47;16.13;;;9.82;;
41323;SDS011;27073;51.128;4.220;2022-10-31T05:37:37;14.40;;;11.30;;
41323;SDS011;27073;51.128;4.220;2022-10-31T05:40:04;17.70;;;10.32;;
41323;SDS011;27073;51.128;4.220;2022-10-31T05:42:32;13.63;;;11.02;;
41323;SDS011;27073;51.128;4.220;2022-10-31T05:44:58;12.90;;;9.82;;
41323;SDS011;27073;51.128;4.220;2022-10-31T05:47:42;13.70;;;10.20;;
41323;SDS011;27073;51.128;4.220;2022-10-31T05:50:37;16.33;;;10.15;;
41323;SDS011;27073;51.128;4.220;2022-10-31T05:55:36;15.25;;;9.88;;
41323;SDS011;27073;51.128;4.220;2022-10-31T05:58:07;17.02;;;11.05;;
41323;SDS011;27073;51.128;4.220;2022-10-31T06:00:35;15.48;;;10.77;;
41323;SDS011;27073;51.128;4.220;2022-10-31T06:03:06;13.60;;;11.07;;
41323;SDS011;27073;51.128;4.220;2022-10-31T06:06:02;13.95;;;10.80;;
41323;SDS011;27073;51.128;4.220;2022-10-31T06:08:33;15.07;;;10.90;;
41323;SDS011;27073;51.128;4.220;2022-10-31T06:11:03;17.30;;;10.90;;
41323;SDS011;27073;51.128;4.220;2022-10-31T06:13:52;19.08;;;11.35;;
41323;SDS011;27073;51.128;4.220;2022-10-31T06:16:22;16.77;;;10.90;;
41323;SDS011;27073;51.128;4.220;2022-10-31T06:18:49;12.98;;;11.15;;
41323;SDS011;27073;51.128;4.220;2022-10-31T06:21:15;14.65;;;10.95;;
41323;SDS011;27073;51.128;4.220;2022-10-31T06:23:40;12.85;;;10.43;;
41323;SDS011;27073;51.128;4.220;2022-10-31T06:26:44;15.48;;;10.95;;
41323;SDS011;27073;51.128;4.220;2022-10-31T06:29:10;15.82;;;10.63;;
41323;SDS011;27073;51.128;4.220;2022-10-31T06:31:54;16.33;;;11.15;;
41323;SDS011;27073;51.128;4.220;2022-10-31T06:34:20;16.70;;;10.23;;
41323;SDS011;27073;51.128;4.220;2022-10-31T06:36:46;16.42;;;10.90;;
41323;SDS011;27073;51.128;4.220;2022-10-31T06:39:12;14.77;;;9.80;;
41323;SDS011;27073;51.128;4.220;2022-10-31T06:41:38;14.60;;;9.65;;
41323;SDS011;27073;51.128;4.220;2022-10-31T06:44:05;14.85;;;10.38;;
41323;SDS011;27073;51.128;4.220;2022-10-31T06:46:50;14.80;;;9.55;;
41323;SDS011;27073;51.128;4.220;2022-10-31T06:49:34;14.57;;;10.45;;
41323;SDS011;27073;51.128;4.220;2022-10-31T06:52:03;11.88;;;9.80;;
41323;SDS011;27073;51.128;4.220;2022-10-31T06:54:30;12.90;;;10.10;;
41323;SDS011;27073;51.128;4.220;2022-10-31T06:56:56;15.25;;;10.13;;
41323;SDS011;27073;51.128;4.220;2022-10-31T06:59:21;16.25;;;10.80;;
41323;SDS011;27073;51.128;4.220;2022-10-31T07:02:08;14.50;;;9.68;;
41323;SDS011;27073;51.128;4.220;2022-10-31T07:04:35;17.27;;;10.02;;
41323;SDS011;27073;51.128;4.220;2022-10-31T07:07:01;19.92;;;9.23;;
41323;SDS011;27073;51.128;4.220;2022-10-31T07:09:28;16.73;;;10.35;;
41323;SDS011;27073;51.128;4.220;2022-10-31T07:11:56;14.07;;;10.25;;
41323;SDS011;27073;51.128;4.220;2022-10-31T07:14:22;21.50;;;10.63;;
41323;SDS011;27073;51.128;4.220;2022-10-31T07:16:48;19.33;;;10.75;;
41323;SDS011;27073;51.128;4.220;2022-10-31T07:19:16;13.75;;;10.27;;
41323;SDS011;27073;51.128;4.220;2022-10-31T07:21:42;14.85;;;9.45;;
41323;SDS011;27073;51.128;4.220;2022-10-31T07:24:09;14.68;;;10.07;;
41323;SDS011;27073;51.128;4.220;2022-10-31T07:26:57;15.93;;;10.35;;
41323;SDS011;27073;51.128;4.220;2022-10-31T07:29:23;12.65;;;10.02;;
41323;SDS011;27073;51.128;4.220;2022-10-31T07:31:49;12.93;;;10.38;;
41323;SDS011;27073;51.128;4.220;2022-10-31T07:34:21;17.50;;;10.57;;
41323;SDS011;27073;51.128;4.220;2022-10-31T07:37:05;21.83;;;16.15;;
41323;SDS011;27073;51.128;4.220;2022-10-31T07:39:31;18.42;;;10.75;;
41323;SDS011;27073;51.128;4.220;2022-10-31T07:41:58;15.18;;;10.07;;
41323;SDS011;27073;51.128;4.220;2022-10-31T07:44:24;16.08;;;11.45;;
41323;SDS011;27073;51.128;4.220;2022-10-31T07:47:08;15.65;;;9.93;;
41323;SDS011;27073;51.128;4.220;2022-10-31T07:50:03;15.48;;;10.10;;
41323;SDS011;27073;51.128;4.220;2022-10-31T07:55:48;16.05;;;10.20;;
41323;SDS011;27073;51.128;4.220;2022-10-31T07:58:15;13.50;;;10.93;;
41323;SDS011;27073;51.128;4.220;2022-10-31T08:00:43;14.45;;;9.95;;
41323;SDS011;27073;51.128;4.220;2022-10-31T08:03:14;16.77;;;10.63;;
41323;SDS011;27073;51.128;4.220;2022-10-31T08:06:13;17.40;;;11.15;;
41323;SDS011;27073;51.128;4.220;2022-10-31T08:09:02;17.23;;;11.27;;
41323;SDS011;27073;51.128;4.220;2022-10-31T08:11:30;15.23;;;11.65;;
41323;SDS011;27073;51.128;4.220;2022-10-31T08:13:57;14.65;;;11.05;;
41323;SDS011;27073;51.128;4.220;2022-10-31T08:16:23;20.38;;;12.40;;
41323;SDS011;27073;51.128;4.220;2022-10-31T08:21:21;21.15;;;11.65;;
41323;SDS011;27073;51.128;4.220;2022-10-31T08:23:48;18.52;;;11.70;;
41323;SDS011;27073;51.128;4.220;2022-10-31T08:26:17;15.50;;;12.93;;
41323;SDS011;27073;51.128;4.220;2022-10-31T08:28:43;16.35;;;11.82;;
41323;SDS011;27073;51.128;4.220;2022-10-31T08:31:09;16.35;;;12.30;;
41323;SDS011;27073;51.128;4.220;2022-10-31T08:33:38;18.17;;;12.50;;
41323;SDS011;27073;51.128;4.220;2022-10-31T08:36:22;15.77;;;11.93;;
41323;SDS011;27073;51.128;4.220;2022-10-31T08:39:01;21.55;;;13.68;;
41323;SDS011;27073;51.128;4.220;2022-10-31T08:41:28;16.30;;;13.25;;
41323;SDS011;27073;51.128;4.220;2022-10-31T08:43:54;20.20;;;13.60;;
41323;SDS011;27073;51.128;4.220;2022-10-31T08:46:20;19.80;;;13.30;;
41323;SDS011;27073;51.128;4.220;2022-10-31T08:48:49;18.50;;;13.15;;
41323;SDS011;27073;51.128;4.220;2022-10-31T08:51:17;17.65;;;13.40;;
41323;SDS011;27073;51.128;4.220;2022-10-31T08:53:44;20.23;;;13.05;;
41323;SDS011;27073;51.128;4.220;2022-10-31T08:56:32;20.02;;;13.48;;
41323;SDS011;27073;51.128;4.220;2022-10-31T08:58:59;20.63;;;13.43;;
41323;SDS011;27073;51.128;4.220;2022-10-31T09:01:36;17.98;;;13.68;;
41323;SDS011;27073;51.128;4.220;2022-10-31T09:04:04;19.88;;;14.27;;
41323;SDS011;27073;51.128;4.220;2022-10-31T09:06:30;17.48;;;13.80;;
41323;SDS011;27073;51.128;4.220;2022-10-31T09:08:58;18.35;;;13.85;;
41323;SDS011;27073;51.128;4.220;2022-10-31T09:11:24;14.57;;;12.25;;
41323;SDS011;27073;51.128;4.220;2022-10-31T09:14:08;22.30;;;13.70;;
41323;SDS011;27073;51.128;4.220;2022-10-31T09:16:37;17.48;;;13.30;;
41323;SDS011;27073;51.128;4.220;2022-10-31T09:19:04;23.73;;;14.25;;
41323;SDS011;27073;51.128;4.220;2022-10-31T09:21:30;25.17;;;15.27;;
41323;SDS011;27073;51.128;4.220;2022-10-31T09:23:57;18.50;;;14.32;;
41323;SDS011;27073;51.128;4.220;2022-10-31T09:26:23;19.50;;;14.25;;
41323;SDS011;27073;51.128;4.220;2022-10-31T09:29:01;22.02;;;12.90;;
41323;SDS011;27073;51.128;4.220;2022-10-31T09:31:28;17.20;;;13.60;;
41323;SDS011;27073;51.128;4.220;2022-10-31T09:34:24;17.77;;;13.50;;
41323;SDS011;27073;51.128;4.220;2022-10-31T09:37:04;25.23;;;15.07;;
41323;SDS011;27073;51.128;4.220;2022-10-31T09:39:33;19.88;;;13.35;;
41323;SDS011;27073;51.128;4.220;2022-10-31T09:44:44;20.05;;;13.05;;
41323;SDS011;27073;51.128;4.220;2022-10-31T09:53:53;19.80;;;12.60;;
41323;SDS011;27073;51.128;4.220;2022-10-31T09:56:28;16.35;;;12.40;;
41323;SDS011;27073;51.128;4.220;2022-10-31T09:58:58;19.70;;;12.80;;
41323;SDS011;27073;51.128;4.220;2022-10-31T10:01:41;21.30;;;13.30;;
41323;SDS011;27073;51.128;4.220;2022-10-31T10:06:56;21.00;;;13.75;;
41323;SDS011;27073;51.128;4.220;2022-10-31T10:09:55;15.73;;;12.85;;
41323;SDS011;27073;51.128;4.220;2022-10-31T10:26:23;17.25;;;13.20;;
41323;SDS011;27073;51.128;4.220;2022-10-31T10:28:57;19.70;;;14.18;;
41323;SDS011;27073;51.128;4.220;2022-10-31T10:31:28;20.30;;;14.45;;
41323;SDS011;27073;51.128;4.220;2022-10-31T10:36:58;19.02;;;14.55;;
41323;SDS011;27073;51.128;4.220;2022-10-31T10:39:56;18.55;;;14.52;;
41323;SDS011;27073;51.128;4.220;2022-10-31T10:42:33;15.65;;;14.02;;
41323;SDS011;27073;51.128;4.220;2022-10-31T10:45:19;20.05;;;15.20;;
41323;SDS011;27073;51.128;4.220;2022-10-31T10:48:10;21.70;;;15.43;;
41323;SDS011;27073;51.128;4.220;2022-10-31T10:50:56;21.42;;;15.85;;
41323;SDS011;27073;51.128;4.220;2022-10-31T10:59:33;20.15;;;14.57;;
41323;SDS011;27073;51.128;4.220;2022-10-31T11:02:00;20.38;;;15.55;;
41323;SDS011;27073;51.128;4.220;2022-10-31T11:07:00;21.67;;;15.15;;
41323;SDS011;27073;51.128;4.220;2022-10-31T11:09:34;18.90;;;14.80;;
41323;SDS011;27073;51.128;4.220;2022-10-31T11:12:05;18.38;;;14.27;;
41323;SDS011;27073;51.128;4.220;2022-10-31T11:14:46;18.05;;;13.45;;
41323;SDS011;27073;51.128;4.220;2022-10-31T11:20:27;16.63;;;13.30;;
41323;SDS011;27073;51.128;4.220;2022-10-31T11:22:45;17.52;;;12.80;;
41323;SDS011;27073;51.128;4.220;2022-10-31T11:27:44;19.10;;;13.85;;
41323;SDS011;27073;51.128;4.220;2022-10-31T11:30:12;20.42;;;14.70;;
41323;SDS011;27073;51.128;4.220;2022-10-31T11:32:49;19.88;;;13.25;;
41323;SDS011;27073;51.128;4.220;2022-10-31T11:35:17;20.60;;;14.95;;
41323;SDS011;27073;51.128;4.220;2022-10-31T11:37:46;18.10;;;14.55;;
41323;SDS011;27073;51.128;4.220;2022-10-31T11:40:17;18.10;;;14.80;;
41323;SDS011;27073;51.128;4.220;2022-10-31T11:42:45;18.23;;;15.23;;
41323;SDS011;27073;51.128;4.220;2022-10-31T11:47:50;21.20;;;16.58;;
41323;SDS011;27073;51.128;4.220;2022-10-31T11:52:48;23.60;;;17.00;;
41323;SDS011;27073;51.128;4.220;2022-10-31T11:55:15;17.95;;;15.95;;
41323;SDS011;27073;51.128;4.220;2022-10-31T11:57:54;19.42;;;16.92;;
41323;SDS011;27073;51.128;4.220;2022-10-31T12:03:04;24.55;;;15.70;;
41323;SDS011;27073;51.128;4.220;2022-10-31T12:05:42;22.80;;;16.83;;
41323;SDS011;27073;51.128;4.220;2022-10-31T12:08:11;22.23;;;17.15;;
41323;SDS011;27073;51.128;4.220;2022-10-31T12:11:22;26.95;;;20.75;;
41323;SDS011;27073;51.128;4.220;2022-10-31T12:21:52;24.02;;;16.23;;
41323;SDS011;27073;51.128;4.220;2022-10-31T12:24:37;20.63;;;15.05;;
41323;SDS011;27073;51.128;4.220;2022-10-31T12:32:54;25.02;;;16.52;;
41323;SDS011;27073;51.128;4.220;2022-10-31T12:58:17;19.83;;;15.75;;
41323;SDS011;27073;51.128;4.220;2022-10-31T13:01:11;28.85;;;15.88;;
41323;SDS011;27073;51.128;4.220;2022-10-31T13:03:55;21.35;;;15.65;;
41323;SDS011;27073;51.128;4.220;2022-10-31T13:07:11;23.90;;;14.88;;
41323;SDS011;27073;51.128;4.220;2022-10-31T13:09:30;21.77;;;15.63;;
41323;SDS011;27073;51.128;4.220;2022-10-31T13:17:01;22.20;;;14.85;;
41323;SDS011;27073;51.128;4.220;2022-10-31T13:22:00;20.35;;;14.65;;
41323;SDS011;27073;51.128;4.220;2022-10-31T13:24:52;27.27;;;16.10;;
41323;SDS011;27073;51.128;4.220;2022-10-31T13:27:45;18.23;;;14.82;;
41323;SDS011;27073;51.128;4.220;2022-10-31T13:30:27;20.05;;;14.52;;
41323;SDS011;27073;51.128;4.220;2022-10-31T13:41:02;23.20;;;14.80;;
41323;SDS011;27073;51.128;4.220;2022-10-31T13:46:24;16.48;;;13.48;;
41323;SDS011;27073;51.128;4.220;2022-10-31T13:48:51;22.55;;;13.80;;
41323;SDS011;27073;51.128;4.220;2022-10-31T13:54:22;24.08;;;13.77;;
41323;SDS011;27073;51.128;4.220;2022-10-31T13:56:56;21.52;;;14.30;;
41323;SDS011;27073;51.128;4.220;2022-10-31T13:59:22;16.45;;;12.85;;
41323;SDS011;27073;51.128;4.220;2022-10-31T14:01:51;20.42;;;13.35;;
41323;SDS011;27073;51.128;4.220;2022-10-31T14:04:22;19.92;;;12.98;;
41323;SDS011;27073;51.128;4.220;2022-10-31T14:06:54;21.88;;;12.77;;
41323;SDS011;27073;51.128;4.220;2022-10-31T14:12:08;19.05;;;14.13;;
41323;SDS011;27073;51.128;4.220;2022-10-31T14:14:49;21.88;;;13.52;;
41323;SDS011;27073;51.128;4.220;2022-10-31T14:17:22;21.30;;;12.65;;
41323;SDS011;27073;51.128;4.220;2022-10-31T14:20:00;19.27;;;12.35;;
41323;SDS011;27073;51.128;4.220;2022-10-31T14:22:35;13.93;;;10.70;;
41323;SDS011;27073;51.128;4.220;2022-10-31T14:27:51;16.75;;;10.60;;
41323;SDS011;27073;51.128;4.220;2022-10-31T14:30:21;17.85;;;10.10;;
41323;SDS011;27073;51.128;4.220;2022-10-31T14:32:52;20.50;;;9.63;;
41323;SDS011;27073;51.128;4.220;2022-10-31T14:35:24;16.25;;;9.65;;
41323;SDS011;27073;51.128;4.220;2022-10-31T14:53:52;15.20;;;7.63;;
41323;SDS011;27073;51.128;4.220;2022-10-31T14:56:21;15.00;;;7.30;;
41323;SDS011;27073;51.128;4.220;2022-10-31T14:58:56;18.35;;;6.15;;
41323;SDS011;27073;51.128;4.220;2022-10-31T15:04:03;12.07;;;6.45;;
41323;SDS011;27073;51.128;4.220;2022-10-31T15:06:44;15.55;;;6.00;;
41323;SDS011;27073;51.128;4.220;2022-10-31T15:09:25;14.93;;;6.70;;
41323;SDS011;27073;51.128;4.220;2022-10-31T15:11:53;15.32;;;6.57;;
41323;SDS011;27073;51.128;4.220;2022-10-31T15:14:52;12.32;;;6.38;;
41323;SDS011;27073;51.128;4.220;2022-10-31T15:17:11;11.65;;;5.97;;
41323;SDS011;27073;51.128;4.220;2022-10-31T15:19:37;15.20;;;6.55;;
41323;SDS011;27073;51.128;4.220;2022-10-31T15:22:03;15.77;;;6.72;;
41323;SDS011;27073;51.128;4.220;2022-10-31T15:24:33;15.20;;;6.80;;
41323;SDS011;27073;51.128;4.220;2022-10-31T15:27:01;14.63;;;7.57;;
41323;SDS011;27073;51.128;4.220;2022-10-31T15:29:27;17.02;;;7.43;;
41323;SDS011;27073;51.128;4.220;2022-10-31T15:31:58;11.98;;;6.70;;
41323;SDS011;27073;51.128;4.220;2022-10-31T15:34:28;18.90;;;7.55;;
41323;SDS011;27073;51.128;4.220;2022-10-31T15:37:12;17.52;;;7.88;;
41323;SDS011;27073;51.128;4.220;2022-10-31T15:39:40;15.80;;;7.63;;
41323;SDS011;27073;51.128;4.220;2022-10-31T15:42:22;13.48;;;7.38;;
41323;SDS011;27073;51.128;4.220;2022-10-31T15:44:59;16.58;;;7.80;;
41323;SDS011;27073;51.128;4.220;2022-10-31T15:47:34;14.25;;;8.07;;
41323;SDS011;27073;51.128;4.220;2022-10-31T15:50:01;17.90;;;9.10;;
41323;SDS011;27073;51.128;4.220;2022-10-31T15:57:45;14.75;;;9.30;;
41323;SDS011;27073;51.128;4.220;2022-10-31T16:05:46;15.27;;;7.68;;
41323;SDS011;27073;51.128;4.220;2022-10-31T16:13:36;12.80;;;8.75;;
41323;SDS011;27073;51.128;4.220;2022-10-31T16:16:12;12.50;;;8.13;;
41323;SDS011;27073;51.128;4.220;2022-10-31T16:18:39;16.25;;;8.85;;
41323;SDS011;27073;51.128;4.220;2022-10-31T16:21:06;16.65;;;8.05;;
41323;SDS011;27073;51.128;4.220;2022-10-31T16:23:32;19.38;;;8.93;;
41323;SDS011;27073;51.128;4.220;2022-10-31T16:25:59;15.93;;;7.93;;
41323;SDS011;27073;51.128;4.220;2022-10-31T16:28:25;14.00;;;8.77;;
41323;SDS011;27073;51.128;4.220;2022-10-31T16:30:53;12.93;;;8.15;;
41323;SDS011;27073;51.128;4.220;2022-10-31T16:35:52;18.20;;;8.82;;
41323;SDS011;27073;51.128;4.220;2022-10-31T16:38:20;16.58;;;9.35;;
41323;SDS011;27073;51.128;4.220;2022-10-31T16:40:46;15.07;;;8.70;;
41323;SDS011;27073;51.128;4.220;2022-10-31T16:43:12;16.60;;;9.63;;
41323;SDS011;27073;51.128;4.220;2022-10-31T16:48:13;15.57;;;9.23;;
41323;SDS011;27073;51.128;4.220;2022-10-31T16:50:41;19.58;;;9.88;;
41323;SDS011;27073;51.128;4.220;2022-10-31T16:53:08;18.88;;;9.48;;
41323;SDS011;27073;51.128;4.220;2022-10-31T16:55:37;18.33;;;9.95;;
41323;SDS011;27073;51.128;4.220;2022-10-31T16:58:26;16.67;;;9.55;;
41323;SDS011;27073;51.128;4.220;2022-10-31T17:00:55;15.05;;;9.27;;
41323;SDS011;27073;51.128;4.220;2022-10-31T17:03:22;15.80;;;9.23;;
41323;SDS011;27073;51.128;4.220;2022-10-31T17:05:48;18.63;;;9.65;;
41323;SDS011;27073;51.128;4.220;2022-10-31T17:08:13;15.88;;;9.00;;
41323;SDS011;27073;51.128;4.220;2022-10-31T17:10:39;19.58;;;9.23;;
41323;SDS011;27073;51.128;4.220;2022-10-31T17:13:08;16.77;;;9.93;;
41323;SDS011;27073;51.128;4.220;2022-10-31T17:15:42;19.73;;;10.50;;
41323;SDS011;27073;51.128;4.220;2022-10-31T17:18:11;19.85;;;11.25;;
41323;SDS011;27073;51.128;4.220;2022-10-31T17:20:38;17.17;;;9.70;;
41323;SDS011;27073;51.128;4.220;2022-10-31T17:23:03;14.48;;;10.48;;
41323;SDS011;27073;51.128;4.220;2022-10-31T17:25:29;17.40;;;9.75;;
41323;SDS011;27073;51.128;4.220;2022-10-31T17:27:59;17.95;;;10.50;;
41323;SDS011;27073;51.128;4.220;2022-10-31T17:30:25;17.52;;;10.18;;
41323;SDS011;27073;51.128;4.220;2022-10-31T17:32:51;16.73;;;10.30;;
41323;SDS011;27073;51.128;4.220;2022-10-31T17:35:18;18.50;;;10.27;;
41323;SDS011;27073;51.128;4.220;2022-10-31T17:37:44;18.98;;;10.70;;
41323;SDS011;27073;51.128;4.220;2022-10-31T17:40:14;14.95;;;9.48;;
41323;SDS011;27073;51.128;4.220;2022-10-31T17:42:42;16.13;;;9.82;;
41323;SDS011;27073;51.128;4.220;2022-10-31T17:45:12;13.13;;;9.80;;
41323;SDS011;27073;51.128;4.220;2022-10-31T17:47:38;18.00;;;10.23;;
41323;SDS011;27073;51.128;4.220;2022-10-31T17:50:04;17.85;;;9.65;;
41323;SDS011;27073;51.128;4.220;2022-10-31T17:52:30;20.70;;;11.23;;
41323;SDS011;27073;51.128;4.220;2022-10-31T17:54:55;17.98;;;10.02;;
41323;SDS011;27073;51.128;4.220;2022-10-31T17:57:21;14.75;;;9.70;;
41323;SDS011;27073;51.128;4.220;2022-10-31T17:59:47;16.95;;;10.77;;
41323;SDS011;27073;51.128;4.220;2022-10-31T18:02:12;18.40;;;10.07;;
41323;SDS011;27073;51.128;4.220;2022-10-31T18:04:39;15.02;;;9.38;;
41323;SDS011;27073;51.128;4.220;2022-10-31T18:07:05;17.00;;;8.95;;
41323;SDS011;27073;51.128;4.220;2022-10-31T18:09:31;18.55;;;9.95;;
41323;SDS011;27073;51.128;4.220;2022-10-31T18:11:58;18.58;;;9.23;;